Flugplatz Frankfurt (Oder) Gronenfelde (UL)

Hier findest Du alle Informationen zum Flugplatz Frankfurt (Oder) Gronenfelde (UL).

Informationen für Piloten zum Flugplatz Frankfurt (Oder) Gronenfelde

Hier findest Du alle relevanten Informationen, die Du als Pilot benötigst, um Frankfurt (Oder) Gronenfelde anzufliegen.

Flugplatz: Frankfurt (Oder) Gronenfelde ICAO-Code: UL Flugplatz
Frequenz Turm: 120.975 Mhz GAFOR Gebiet: -
Frequenz Ground: 120.975 Mhz Mogas: nein
Platzrunde: S 0 ft Landegebühr: 5 €
Platzhöhe: Sunrise: 04:49 Uhr UTC
Pisten: 12/30 - 490 m x 20 m, GRAS Sunset: 16:58 Uhr UTC

Flugwetter am Flugplatz Frankfurt (Oder) Gronenfelde

Die METAR Information stammen aus EDDB (66.06 km entfernt).

METAR Code:
2022/09/12 12:50
EDDB 121250Z AUTO VRB02KT 9999 FEW039 21/11 Q1017 NOSIG

Flugschulen am Flugplatz Frankfurt (Oder) Gronenfelde

Am Flugplatz Frankfurt (Oder) Gronenfelde gibt es leider keine Flugschule.

Benachbarte Flugplätze und Flugschulen

Es gibt 6 weitere Flugplätze in einem Umkreis von 50 km um den Flugplatz Frankfurt (Oder) Gronenfelde.

Jetzt anmelden

Passwort vergessen

Umfrage Archiv

Sendet Ihr ADS-B und/oder FLARM?

Ja
83.7 %
Nein
16.3 %
Stimmen: 221 | Diskussion
Anzeige: Roland Aircraft
Statistik Alle Mitglieder

Aktuell sind 39 Besucher online, davon 1 Mitglied und 38 Gäste.


Mitglieder online:
Niklasfabian 

Anzeige: ULPower Aero Engines Anzeige: Pocket FMS